createdAt,value
2017-04-26T00:09:03.849Z,-54
2017-04-26T00:19:03.796Z,-54
2017-04-26T00:29:03.904Z,-54
2017-04-26T00:39:03.787Z,-50
2017-04-26T00:49:03.765Z,-53
2017-04-26T00:59:03.763Z,-54
2017-04-26T01:09:03.764Z,-50
2017-04-26T01:19:03.769Z,-54
2017-04-26T01:29:03.745Z,-53
2017-04-26T01:39:03.895Z,-53
2017-04-26T01:49:03.844Z,-53
2017-04-26T01:59:03.767Z,-54
2017-04-26T02:09:03.751Z,-53
2017-04-26T02:19:03.747Z,-53
2017-04-26T02:29:03.824Z,-54
2017-04-26T02:39:04.244Z,-53
2017-04-26T02:49:03.856Z,-53
2017-04-26T02:59:03.770Z,-53
2017-04-26T03:09:03.799Z,-54
2017-04-26T03:19:03.741Z,-54
2017-04-26T03:29:03.716Z,-52
2017-04-26T03:39:03.856Z,-54
2017-04-26T03:49:03.802Z,-52
2017-04-26T03:59:03.747Z,-53
2017-04-26T04:09:03.930Z,-56
2017-04-26T04:19:03.713Z,-53
2017-04-26T04:29:03.750Z,-52
2017-04-26T04:39:03.718Z,-53
2017-04-26T04:49:03.748Z,-53
2017-04-26T04:59:03.706Z,-52
2017-04-26T05:09:03.790Z,-54
2017-04-26T05:19:03.772Z,-52
2017-04-26T05:29:03.689Z,-52
2017-04-26T05:39:03.775Z,-53
2017-04-26T05:49:03.733Z,-53
2017-04-26T05:59:03.756Z,-53
2017-04-26T06:09:03.700Z,-54
2017-04-26T06:19:03.714Z,-53
2017-04-26T06:29:03.674Z,-53
2017-04-26T06:39:03.737Z,-54
2017-04-26T06:49:03.775Z,-52
2017-04-26T06:59:03.672Z,-53
2017-04-26T07:09:03.749Z,-54
2017-04-26T07:19:03.687Z,-54
2017-04-26T07:29:03.962Z,-54
2017-04-26T07:39:03.706Z,-58
2017-04-26T07:49:03.680Z,-59
2017-04-26T07:59:03.715Z,-57
2017-04-26T08:09:03.827Z,-56
2017-04-26T08:19:03.747Z,-55
2017-04-26T08:29:03.716Z,-55
2017-04-26T08:39:03.724Z,-57
2017-04-26T08:49:03.751Z,-56
2017-04-26T08:59:03.672Z,-55
2017-04-26T09:09:03.722Z,-55
2017-04-26T09:19:03.775Z,-57
2017-04-26T09:29:03.702Z,-55
2017-04-26T09:39:03.743Z,-55
2017-04-26T09:49:03.741Z,-55
2017-04-26T09:59:03.683Z,-57
2017-04-26T10:09:03.747Z,-56
2017-04-26T10:19:03.688Z,-55
2017-04-26T10:29:11.065Z,-57
2017-04-26T10:39:03.701Z,-55
2017-04-26T10:49:03.765Z,-55
2017-04-26T10:59:03.816Z,-56
2017-04-26T11:09:03.709Z,-56
2017-04-26T11:19:03.745Z,-56
2017-04-26T11:29:03.781Z,-56
2017-04-26T11:39:03.668Z,-56
2017-04-26T11:49:03.867Z,-56
2017-04-26T11:59:03.755Z,-56
2017-04-26T12:09:03.690Z,-56
2017-04-26T12:19:09.974Z,-52
2017-04-26T12:29:03.881Z,-55
2017-04-26T12:39:03.707Z,-64
2017-04-26T12:49:03.712Z,-61
2017-04-26T12:59:03.785Z,-64
2017-04-26T13:09:03.705Z,-61
2017-04-26T13:19:03.838Z,-61
2017-04-26T13:29:03.750Z,-57
2017-04-26T13:39:03.746Z,-57
2017-04-26T13:49:03.793Z,-56
2017-04-26T13:59:13.550Z,-58
2017-04-26T14:09:03.708Z,-55
2017-04-26T14:19:03.897Z,-53
2017-04-26T14:29:03.774Z,-56
2017-04-26T14:39:03.969Z,-59
2017-04-26T14:49:03.755Z,-56
2017-04-26T14:59:03.736Z,-56
2017-04-26T15:09:03.719Z,-56
2017-04-26T15:19:03.743Z,-57
2017-04-26T15:29:03.874Z,-58
2017-04-26T15:39:03.714Z,-57
2017-04-26T15:49:03.723Z,-57
2017-04-26T15:59:03.710Z,-57
2017-04-26T16:09:03.736Z,-58
2017-04-26T16:19:03.745Z,-57
2017-04-26T16:29:03.905Z,-56
2017-04-26T16:39:03.789Z,-57
2017-04-26T16:49:03.716Z,-58
2017-04-26T16:59:03.956Z,-57
2017-04-26T17:09:03.746Z,-57
2017-04-26T17:19:03.708Z,-56
2017-04-26T17:29:03.719Z,-56
2017-04-26T17:39:03.753Z,-57
2017-04-26T17:49:03.687Z,-57
2017-04-26T17:59:03.957Z,-57
2017-04-26T18:09:03.710Z,-57
2017-04-26T18:19:03.935Z,-57
2017-04-26T18:29:03.702Z,-57
2017-04-26T18:39:03.687Z,-60
2017-04-26T18:49:03.825Z,-56
2017-04-26T18:59:03.689Z,-58
2017-04-26T19:09:03.661Z,-58
2017-04-26T19:19:03.720Z,-58
2017-04-26T19:29:03.683Z,-56
2017-04-26T19:39:03.711Z,-57
2017-04-26T19:49:03.773Z,-57
2017-04-26T19:59:03.688Z,-56
2017-04-26T20:09:03.748Z,-58
2017-04-26T20:19:03.699Z,-57
2017-04-26T20:29:03.718Z,-57
2017-04-26T20:39:03.743Z,-57
2017-04-26T20:49:03.724Z,-60
2017-04-26T20:59:03.695Z,-58
2017-04-26T21:09:03.796Z,-56
2017-04-26T21:19:03.879Z,-60
2017-04-26T21:29:03.777Z,-56
2017-04-26T21:39:03.777Z,-57
2017-04-26T21:49:03.879Z,-64
2017-04-26T21:59:05.388Z,-66
2017-04-26T22:09:03.725Z,-53
2017-04-26T22:19:03.715Z,-54
2017-04-26T22:29:03.654Z,-53
2017-04-26T22:39:03.721Z,-52
2017-04-26T22:49:03.733Z,-53
2017-04-26T22:59:03.699Z,-53
2017-04-26T23:09:03.631Z,-53
2017-04-26T23:19:03.741Z,-55
2017-04-26T23:29:03.618Z,-54
2017-04-26T23:39:03.600Z,-54
2017-04-26T23:49:03.737Z,-54
2017-04-26T23:59:03.656Z,-53
